Time;durP1;ratioP1;P1;durP2;ratioP2;P2;SDS_P1;SDS_P2;PMS_P1;PMS_P2;Temp;Humidity;BMP_temperature;BMP_pressure;BME280_temperature;BME280_humidity;BME280_pressure;Samples;Min_cycle;Max_cycle;Signal;HPM_P1;HPM_P2
2021/07/06 00:02:26;;;;;;;0.40;0.20;;;;;;;18.98;100.00;99509.88;5073779;28;20591;-51
2021/07/06 00:04:59;;;;;;;0.40;0.20;;;;;;;18.91;100.00;99506.81;5074044;28;20443;-51
2021/07/06 00:07:27;;;;;;;0.40;0.20;;;;;;;18.88;100.00;99507.03;5073907;28;20519;-51
2021/07/06 00:09:55;;;;;;;0.40;0.20;;;;;;;18.82;100.00;99502.09;5074604;28;20421;-51
2021/07/06 00:12:22;;;;;;;0.40;0.20;;;;;;;18.76;100.00;99488.22;5073735;28;20488;-51
2021/07/06 00:14:49;;;;;;;0.40;0.30;;;;;;;18.68;100.00;99487.97;5068462;28;20447;-51
2021/07/06 00:17:19;;;;;;;0.40;0.20;;;;;;;18.71;100.00;99487.72;5073105;28;20461;-51
2021/07/06 00:19:47;;;;;;;0.40;0.20;;;;;;;18.73;100.00;99477.69;5074229;28;20428;-51
2021/07/06 00:22:14;;;;;;;0.40;0.20;;;;;;;18.76;100.00;99483.69;5073305;28;20975;-50
2021/07/06 00:24:41;;;;;;;0.40;0.20;;;;;;;18.78;100.00;99486.31;5072547;28;20450;-51
2021/07/06 00:27:07;;;;;;;0.40;0.20;;;;;;;18.81;100.00;99486.06;5060899;28;20421;-51
2021/07/06 00:29:34;;;;;;;0.40;0.20;;;;;;;18.66;100.00;99474.63;5072960;28;20873;-50
2021/07/06 00:32:01;;;;;;;0.40;0.20;;;;;;;18.39;100.00;99477.50;5069515;28;20473;-52
2021/07/06 00:34:28;;;;;;;0.40;0.20;;;;;;;18.45;100.00;99476.19;5072842;28;20921;-51
2021/07/06 00:36:55;;;;;;;2.37;2.27;;;;;;;18.39;100.00;99466.75;5073195;28;20446;-50
2021/07/06 00:39:21;;;;;;;0.40;0.20;;;;;;;18.43;100.00;99465.53;5072826;28;20523;-51
2021/07/06 00:41:48;;;;;;;0.40;0.20;;;;;;;18.31;100.00;99466.44;5072683;28;21052;-50
2021/07/06 00:44:16;;;;;;;0.40;0.20;;;;;;;18.30;100.00;99467.41;5072195;28;21001;-51
2021/07/06 00:46:43;;;;;;;0.40;0.20;;;;;;;18.16;100.00;99449.59;5072474;28;20461;-51
2021/07/06 00:49:10;;;;;;;0.40;0.30;;;;;;;18.17;100.00;99450.44;5072606;28;20452;-51
2021/07/06 00:51:37;;;;;;;0.40;0.20;;;;;;;18.21;100.00;99449.25;5072499;28;20974;-52
2021/07/06 00:54:04;;;;;;;0.50;0.40;;;;;;;18.23;100.00;99453.56;5071442;28;20469;-51
2021/07/06 00:56:32;;;;;;;0.40;0.20;;;;;;;17.91;100.00;99452.34;5072711;28;20481;-50
2021/07/06 00:58:58;;;;;;;0.40;0.20;;;;;;;17.87;100.00;99451.72;5071525;28;20989;-50
2021/07/06 01:01:25;;;;;;;0.40;0.20;;;;;;;17.87;100.00;99440.94;5072280;28;20466;-51
2021/07/06 01:03:52;;;;;;;0.40;0.20;;;;;;;17.75;100.00;99431.94;5072247;28;20457;-51
2021/07/06 01:06:19;;;;;;;0.50;0.20;;;;;;;17.83;100.00;99439.47;5072462;28;20454;-52
2021/07/06 01:08:46;;;;;;;0.40;0.20;;;;;;;17.89;100.00;99441.69;5072519;28;20455;-49
2021/07/06 01:11:14;;;;;;;0.40;0.20;;;;;;;17.76;100.00;99439.03;5072381;28;20469;-51
2021/07/06 01:13:41;;;;;;;0.40;0.20;;;;;;;17.73;100.00;99446.47;5072314;28;20452;-51
2021/07/06 01:16:08;;;;;;;0.40;0.40;;;;;;;17.84;100.00;99443.88;5064979;28;20454;-50
2021/07/06 01:18:35;;;;;;;0.60;0.50;;;;;;;17.73;100.00;99438.41;5071824;28;20493;-51
2021/07/06 01:21:02;;;;;;;0.40;0.20;;;;;;;17.70;100.00;99444.00;5072360;28;20517;-51
2021/07/06 01:23:29;;;;;;;0.40;0.20;;;;;;;17.63;100.00;99456.97;5072196;28;20948;-50
2021/07/06 01:26:03;;;;;;;0.93;0.93;;;;;;;17.70;100.00;99452.94;5061209;28;20524;-51
2021/07/06 01:28:30;;;;;;;0.40;0.20;;;;;;;17.68;100.00;99453.94;5070995;28;20507;-51
2021/07/06 01:30:57;;;;;;;0.40;0.20;;;;;;;17.67;100.00;99445.03;5069981;28;20622;-51
2021/07/06 01:33:25;;;;;;;0.63;0.63;;;;;;;17.56;100.00;99442.25;5071561;28;20476;-51
2021/07/06 01:35:54;;;;;;;0.40;0.20;;;;;;;17.69;100.00;99431.53;5072193;28;20479;-53
2021/07/06 01:38:20;;;;;;;0.93;0.93;;;;;;;17.62;100.00;99444.50;5059143;28;20468;-51
2021/07/06 01:40:47;;;;;;;0.40;0.20;;;;;;;17.63;100.00;99442.66;5073356;28;20523;-51
2021/07/06 01:43:14;;;;;;;0.40;0.20;;;;;;;17.61;100.00;99432.03;5072033;28;20544;-51
2021/07/06 01:45:41;;;;;;;0.40;0.20;;;;;;;17.46;100.00;99425.91;5058070;28;20557;-51
2021/07/06 01:48:08;;;;;;;0.40;0.20;;;;;;;17.34;100.00;99412.50;5071984;28;20549;-50
2021/07/06 01:50:38;;;;;;;0.50;0.30;;;;;;;17.38;100.00;99403.25;5073010;28;20474;-50
2021/07/06 01:53:11;;;;;;;0.40;0.20;;;;;;;17.35;100.00;99403.47;5072265;28;20424;-51
2021/07/06 01:55:44;;;;;;;0.40;0.20;;;;;;;17.42;100.00;99397.56;5071991;28;20442;-51
2021/07/06 01:58:13;;;;;;;0.40;0.20;;;;;;;17.43;100.00;99385.84;5072254;28;21030;-51
2021/07/06 02:00:44;;;;;;;0.60;0.60;;;;;;;17.53;100.00;99380.66;5071825;28;20470;-52
2021/07/06 02:03:11;;;;;;;0.40;0.20;;;;;;;17.53;100.00;99379.78;5071873;28;20474;-51
2021/07/06 02:05:41;;;;;;;0.50;0.50;;;;;;;17.62;100.00;99387.19;5072562;28;20421;-50
2021/07/06 02:08:14;;;;;;;0.50;0.50;;;;;;;17.46;100.00;99390.13;5071981;28;20446;-50
2021/07/06 02:10:42;;;;;;;8.17;1.57;;;;;;;17.40;100.00;99388.72;5074780;28;20466;-52
2021/07/06 02:13:21;;;;;;;0.70;0.63;;;;;;;17.36;100.00;99384.53;5076836;28;20424;-52
2021/07/06 02:15:50;;;;;;;0.40;0.30;;;;;;;17.45;100.00;99375.84;5068812;28;20912;-52
2021/07/06 02:18:19;;;;;;;0.40;0.20;;;;;;;17.43;100.00;99393.03;5077395;28;20493;-52
2021/07/06 02:20:53;;;;;;;0.40;0.20;;;;;;;17.62;100.00;99401.50;5076252;28;20498;-52
2021/07/06 02:23:22;;;;;;;0.60;0.50;;;;;;;17.48;100.00;99398.94;5076296;28;20437;-52
2021/07/06 02:25:51;;;;;;;0.40;0.20;;;;;;;17.45;100.00;99405.41;5066092;28;20432;-52
2021/07/06 02:28:17;;;;;;;0.40;0.20;;;;;;;17.34;100.00;99401.75;5074786;28;20448;-52
2021/07/06 02:30:44;;;;;;;0.40;0.20;;;;;;;17.72;100.00;99397.22;5076299;28;20469;-52
2021/07/06 02:33:11;;;;;;;0.40;0.20;;;;;;;17.41;100.00;99398.53;5071952;28;20481;-52
2021/07/06 02:35:38;;;;;;;0.40;0.20;;;;;;;17.28;100.00;99389.63;5073954;28;20449;-52
2021/07/06 02:38:05;;;;;;;0.40;0.30;;;;;;;17.18;100.00;99397.47;5075104;28;20464;-52
2021/07/06 02:40:33;;;;;;;0.50;0.40;;;;;;;17.07;100.00;99396.47;5075210;28;20502;-52
2021/07/06 02:43:00;;;;;;;0.40;0.20;;;;;;;17.13;100.00;99405.00;5075113;28;20449;-52
2021/07/06 02:45:29;;;;;;;0.40;0.20;;;;;;;17.04;100.00;99420.88;5074184;28;20449;-52
2021/07/06 02:47:56;;;;;;;0.40;0.20;;;;;;;17.07;100.00;99408.09;5074710;28;20454;-52
2021/07/06 02:50:24;;;;;;;0.40;0.30;;;;;;;17.15;100.00;99415.63;5074905;28;20965;-52
2021/07/06 02:52:51;;;;;;;0.40;0.20;;;;;;;17.18;100.00;99420.78;5074800;28;20461;-52
2021/07/06 02:55:18;;;;;;;0.40;0.20;;;;;;;17.15;100.00;99423.69;5064585;28;20497;-52
2021/07/06 02:57:46;;;;;;;0.40;0.20;;;;;;;17.06;100.00;99419.78;5073564;28;20865;-52
2021/07/06 03:00:21;;;;;;;0.40;0.20;;;;;;;17.14;100.00;99416.59;5075292;28;20456;-51
2021/07/06 03:02:53;;;;;;;0.40;0.30;;;;;;;16.91;100.00;99409.25;5073146;28;20797;-52
2021/07/06 03:05:23;;;;;;;0.40;0.20;;;;;;;16.83;100.00;99405.25;5070723;28;20512;-52
2021/07/06 03:07:51;;;;;;;0.40;0.23;;;;;;;16.44;100.00;99408.78;5063665;28;20539;-52
2021/07/06 03:10:24;;;;;;;0.40;0.23;;;;;;;16.66;100.00;99407.34;5074472;28;20515;-51
2021/07/06 03:12:51;;;;;;;0.40;0.20;;;;;;;16.50;100.00;99407.53;5074686;28;20446;-52
2021/07/06 03:15:20;;;;;;;0.40;0.20;;;;;;;16.75;100.00;99402.25;5066341;28;20446;-51
2021/07/06 03:17:47;;;;;;;0.40;0.20;;;;;;;16.19;100.00;99392.63;5074517;28;20464;-51
2021/07/06 03:20:17;;;;;;;0.40;0.20;;;;;;;16.52;100.00;99384.13;5073891;28;20446;-51
2021/07/06 03:22:44;;;;;;;1.80;1.70;;;;;;;16.64;100.00;99388.66;5074582;28;20507;-52
2021/07/06 03:25:13;;;;;;;0.40;0.20;;;;;;;16.67;100.00;99383.13;5070166;28;20465;-52
2021/07/06 03:27:41;;;;;;;0.40;0.20;;;;;;;16.71;100.00;99376.56;5066087;28;20450;-52
2021/07/06 03:30:12;;;;;;;0.40;0.20;;;;;;;16.76;100.00;99377.13;5073717;28;20939;-51
2021/07/06 03:32:39;;;;;;;0.40;0.30;;;;;;;16.91;100.00;99393.16;5069683;28;20450;-52
2021/07/06 03:35:07;;;;;;;0.40;0.20;;;;;;;16.98;100.00;99386.38;5073485;28;20424;-52
2021/07/06 03:37:34;;;;;;;0.40;0.20;;;;;;;17.60;100.00;99375.72;5073450;28;20453;-52
2021/07/06 03:40:04;;;;;;;0.40;0.20;;;;;;;17.53;100.00;99369.03;5073168;28;20536;-52
2021/07/06 03:42:30;;;;;;;0.40;0.30;;;;;;;17.04;100.00;99375.22;5074083;28;20482;-52
2021/07/06 03:44:57;;;;;;;0.40;0.20;;;;;;;16.85;100.00;99372.94;5073468;28;20971;-52
2021/07/06 03:47:24;;;;;;;0.40;0.20;;;;;;;16.84;100.00;99372.06;5072308;28;20507;-52
2021/07/06 03:49:51;;;;;;;0.40;0.30;;;;;;;16.79;100.00;99371.53;5073163;28;20442;-51
2021/07/06 03:52:17;;;;;;;0.40;0.20;;;;;;;16.94;100.00;99376.81;5073424;28;20515;-52
2021/07/06 03:54:49;;;;;;;0.40;0.20;;;;;;;16.94;100.00;99372.31;5073550;28;20552;-52
2021/07/06 03:57:15;;;;;;;0.40;0.20;;;;;;;16.87;100.00;99373.72;5072882;28;20446;-52
2021/07/06 03:59:42;;;;;;;0.40;0.20;;;;;;;16.76;100.00;99365.53;5072906;28;20490;-52
2021/07/06 04:02:08;;;;;;;0.40;0.20;;;;;;;16.87;100.00;99363.84;5072657;28;20519;-52
2021/07/06 04:04:35;;;;;;;0.40;0.20;;;;;;;16.88;100.00;99359.31;5072735;28;20427;-52
2021/07/06 04:07:02;;;;;;;0.40;0.20;;;;;;;17.01;100.00;99360.19;5072945;28;20457;-52
2021/07/06 04:09:29;;;;;;;0.40;0.20;;;;;;;16.92;100.00;99355.44;5072796;28;20826;-52
2021/07/06 04:11:57;;;;;;;0.40;0.20;;;;;;;16.96;100.00;99361.47;5072770;28;20476;-51
2021/07/06 04:14:24;;;;;;;0.40;0.20;;;;;;;16.97;100.00;99372.09;5068520;28;20553;-52
2021/07/06 04:16:50;;;;;;;0.40;0.20;;;;;;;17.16;100.00;99374.38;5068447;28;20446;-52
2021/07/06 04:19:17;;;;;;;0.40;0.20;;;;;;;17.10;100.00;99369.41;5072704;28;20457;-52
2021/07/06 04:21:44;;;;;;;0.40;0.20;;;;;;;17.07;100.00;99370.50;5072385;28;20475;-52
2021/07/06 04:24:10;;;;;;;0.40;0.20;;;;;;;16.99;100.00;99369.28;5073138;28;20478;-52
2021/07/06 04:26:37;;;;;;;0.40;0.20;;;;;;;17.15;100.00;99375.34;5059678;28;20513;-52
2021/07/06 04:29:03;;;;;;;0.40;0.20;;;;;;;17.07;100.00;99366.94;5072891;28;20454;-52
2021/07/06 04:31:30;;;;;;;0.40;0.20;;;;;;;17.09;100.00;99362.31;5069221;28;20489;-52
2021/07/06 04:33:57;;;;;;;0.40;0.20;;;;;;;17.31;100.00;99356.31;5072072;28;20826;-52
2021/07/06 04:36:25;;;;;;;0.40;0.20;;;;;;;18.18;100.00;99352.63;5072527;28;20450;-51
2021/07/06 04:38:51;;;;;;;0.40;0.20;;;;;;;18.78;100.00;99352.53;5072845;28;20907;-52
2021/07/06 04:41:18;;;;;;;0.40;0.20;;;;;;;19.47;100.00;99347.09;5072553;28;20444;-52
2021/07/06 04:43:45;;;;;;;0.50;0.40;;;;;;;19.94;100.00;99348.63;5072627;28;20443;-52
2021/07/06 04:46:11;;;;;;;0.40;0.20;;;;;;;20.21;100.00;99360.81;5072053;28;20461;-50
2021/07/06 04:48:38;;;;;;;0.40;0.20;;;;;;;20.55;100.00;99358.88;5072078;28;20449;-50
2021/07/06 04:51:07;;;;;;;0.40;0.20;;;;;;;21.36;99.76;99360.84;5071917;28;20444;-52
2021/07/06 04:53:35;;;;;;;0.40;0.20;;;;;;;21.40;98.87;99370.41;5072396;28;20458;-52
2021/07/06 04:56:02;;;;;;;0.40;0.20;;;;;;;21.61;97.35;99374.91;5072144;28;20846;-52
2021/07/06 04:58:29;;;;;;;0.40;0.20;;;;;;;21.85;96.84;99378.13;5072068;28;20514;-52
2021/07/06 05:00:57;;;;;;;0.40;0.20;;;;;;;21.22;99.08;99374.69;5071723;28;20452;-52
2021/07/06 05:03:24;;;;;;;0.40;0.20;;;;;;;20.68;100.00;99376.59;5071395;28;20420;-52
2021/07/06 05:05:51;;;;;;;0.40;0.20;;;;;;;20.32;100.00;99385.94;5072102;28;20482;-52
2021/07/06 05:08:17;;;;;;;0.40;0.30;;;;;;;20.00;100.00;99382.31;5072598;28;20511;-52
2021/07/06 05:10:45;;;;;;;0.40;0.20;;;;;;;20.55;100.00;99383.16;5072018;28;20965;-52
2021/07/06 05:13:13;;;;;;;0.40;0.20;;;;;;;20.80;100.00;99390.91;5072337;28;20792;-52
2021/07/06 05:15:40;;;;;;;3.90;1.33;;;;;;;20.43;100.00;99384.22;5064770;28;20948;-52
2021/07/06 05:18:07;;;;;;;0.40;0.20;;;;;;;20.26;100.00;99381.03;5071967;28;20973;-52
2021/07/06 05:20:34;;;;;;;0.67;0.67;;;;;;;20.08;100.00;99382.56;5071981;28;20478;-52
2021/07/06 05:23:00;;;;;;;0.40;0.20;;;;;;;20.02;100.00;99383.09;5071991;28;20424;-52
2021/07/06 05:25:27;;;;;;;0.60;0.60;;;;;;;19.83;100.00;99387.25;5065302;28;20988;-52
2021/07/06 05:27:57;;;;;;;0.40;0.20;;;;;;;19.71;100.00;99395.50;5066221;28;20432;-52
2021/07/06 05:30:23;;;;;;;0.73;0.73;;;;;;;19.63;100.00;99385.34;5072031;28;20420;-52
2021/07/06 05:32:50;;;;;;;0.40;0.20;;;;;;;19.60;100.00;99382.00;5068352;28;20510;-52
2021/07/06 05:35:17;;;;;;;0.40;0.20;;;;;;;19.62;100.00;99388.16;5072329;28;20527;-52
2021/07/06 05:37:44;;;;;;;0.40;0.27;;;;;;;19.62;100.00;99391.72;5072188;28;20454;-52
2021/07/06 05:40:12;;;;;;;0.40;0.30;;;;;;;19.68;100.00;99387.66;5072282;28;20518;-52
2021/07/06 05:42:39;;;;;;;0.40;0.20;;;;;;;19.61;100.00;99387.31;5071732;28;21017;-52
2021/07/06 05:45:07;;;;;;;0.40;0.20;;;;;;;19.59;100.00;99389.25;5061328;28;20452;-52
2021/07/06 05:47:36;;;;;;;0.40;0.20;;;;;;;19.56;100.00;99392.19;5067322;28;20420;-52
2021/07/06 05:50:07;;;;;;;0.50;0.50;;;;;;;19.62;100.00;99388.16;5072121;28;20435;-52
2021/07/06 05:52:34;;;;;;;0.40;0.30;;;;;;;19.62;100.00;99390.84;5071923;28;20433;-52
2021/07/06 05:55:03;;;;;;;0.40;0.20;;;;;;;19.92;100.00;99390.22;5071015;28;20425;-52
2021/07/06 05:57:30;;;;;;;0.50;0.30;;;;;;;19.69;100.00;99397.47;5071751;28;20446;-52
2021/07/06 06:00:02;;;;;;;0.50;0.30;;;;;;;19.60;100.00;99414.38;5071871;28;20526;-52
2021/07/06 06:02:29;;;;;;;0.40;0.20;;;;;;;19.61;100.00;99438.53;5071669;28;20979;-52
2021/07/06 06:04:55;;;;;;;0.40;0.20;;;;;;;19.57;100.00;99452.34;5070970;28;20445;-52
2021/07/06 06:07:24;;;;;;;0.40;0.30;;;;;;;19.39;100.00;99466.28;5071956;28;20490;-52
2021/07/06 06:09:51;;;;;;;0.40;0.20;;;;;;;19.30;100.00;99491.25;5071806;28;20979;-52
2021/07/06 06:12:17;;;;;;;0.40;0.20;;;;;;;19.00;100.00;99463.97;5071707;28;20470;-52
2021/07/06 06:14:44;;;;;;;0.40;0.20;;;;;;;19.21;100.00;99443.47;5066766;28;20483;-52
2021/07/06 06:17:11;;;;;;;0.40;0.20;;;;;;;19.27;100.00;99464.53;5069872;28;20951;-52
2021/07/06 06:19:37;;;;;;;0.40;0.20;;;;;;;18.96;100.00;99497.50;5072223;28;20482;-52
2021/07/06 06:22:04;;;;;;;0.40;0.30;;;;;;;18.96;100.00;99449.88;5072585;28;20516;-51
2021/07/06 06:24:31;;;;;;;0.50;0.30;;;;;;;18.34;100.00;99397.09;5071825;28;20502;-52
2021/07/06 06:26:58;;;;;;;0.40;0.20;;;;;;;18.45;100.00;99366.69;5056649;28;20446;-51
2021/07/06 06:29:24;;;;;;;0.40;0.27;;;;;;;17.96;100.00;99315.75;5071629;28;20504;-52
2021/07/06 06:31:51;;;;;;;0.40;0.30;;;;;;;17.86;100.00;99320.94;5067972;28;20452;-51
2021/07/06 06:34:18;;;;;;;0.40;0.20;;;;;;;17.83;100.00;99329.22;5071620;28;20433;-51
2021/07/06 06:36:44;;;;;;;0.40;0.20;;;;;;;18.10;100.00;99346.97;5071284;28;20420;-51
2021/07/06 06:39:11;;;;;;;0.40;0.30;;;;;;;18.15;100.00;99363.63;5071374;28;20489;-53
2021/07/06 06:41:38;;;;;;;0.40;0.20;;;;;;;18.35;100.00;99357.59;5071635;28;20518;-52
2021/07/06 06:44:05;;;;;;;0.40;0.20;;;;;;;18.56;100.00;99372.13;5069987;28;20428;-52
2021/07/06 06:46:32;;;;;;;0.40;0.20;;;;;;;18.66;100.00;99391.16;5051502;28;20473;-52
2021/07/06 06:49:04;;;;;;;0.40;0.20;;;;;;;18.81;100.00;99403.44;5051420;28;20475;-51
2021/07/06 06:51:31;;;;;;;0.40;0.20;;;;;;;19.23;100.00;99403.78;5051375;28;20557;-51
2021/07/06 06:54:17;;;;;;;0.47;0.43;;;;;;;19.40;100.00;99406.00;5050153;28;20450;-52
2021/07/06 06:56:46;;;;;;;0.40;0.20;;;;;;;19.32;100.00;99415.66;5054274;28;20454;-51
2021/07/06 06:59:24;;;;;;;0.40;0.20;;;;;;;19.34;100.00;99419.13;5054778;28;20497;-50
2021/07/06 07:02:18;;;;;;;0.40;0.20;;;;;;;19.39;100.00;99425.84;5054559;28;20445;-50
2021/07/06 07:04:55;;;;;;;0.40;0.20;;;;;;;19.64;100.00;99437.44;5056230;28;20478;-50
2021/07/06 07:07:49;;;;;;;0.40;0.20;;;;;;;19.73;100.00;99436.66;5054185;28;20446;-50
2021/07/06 07:10:21;;;;;;;0.40;0.20;;;;;;;19.71;100.00;99436.78;5054571;28;20422;-51
2021/07/06 07:12:54;;;;;;;0.40;0.20;;;;;;;19.56;100.00;99437.16;5053540;28;20456;-51
2021/07/06 07:15:40;;;;;;;0.40;0.20;;;;;;;19.51;100.00;99426.72;5053601;28;20417;-51
2021/07/06 07:18:10;;;;;;;0.40;0.20;;;;;;;19.69;100.00;99422.59;5054135;28;20453;-50
2021/07/06 07:20:48;;;;;;;0.40;0.30;;;;;;;20.15;100.00;99443.16;5054443;28;20569;-52
2021/07/06 07:23:20;;;;;;;0.40;0.20;;;;;;;20.44;100.00;99443.50;5057362;28;20829;-50
2021/07/06 07:25:53;;;;;;;0.40;0.20;;;;;;;20.60;100.00;99457.44;5065470;28;20994;-51
2021/07/06 07:28:27;;;;;;;0.40;0.20;;;;;;;20.49;100.00;99465.56;5071643;28;20453;-51
2021/07/06 07:30:55;;;;;;;0.40;0.20;;;;;;;20.28;100.00;99472.69;5072527;28;20436;-50
2021/07/06 07:33:22;;;;;;;0.40;0.20;;;;;;;20.37;100.00;99490.81;5073471;28;20436;-51
2021/07/06 07:35:49;;;;;;;0.40;0.20;;;;;;;20.68;100.00;99495.44;5074419;28;20935;-51
2021/07/06 07:38:15;;;;;;;0.40;0.20;;;;;;;20.07;100.00;99504.97;5074150;28;20429;-51
2021/07/06 07:40:42;;;;;;;0.40;0.20;;;;;;;19.80;100.00;99516.97;5074307;28;20476;-51
2021/07/06 07:43:09;;;;;;;0.50;0.40;;;;;;;19.78;100.00;99535.13;5074116;28;20474;-51
2021/07/06 07:45:37;;;;;;;0.40;0.20;;;;;;;19.70;100.00;99542.94;5073754;28;20485;-51
2021/07/06 07:48:06;;;;;;;0.40;0.20;;;;;;;19.64;100.00;99543.44;5073757;28;20551;-51
2021/07/06 07:50:32;;;;;;;0.40;0.20;;;;;;;19.68;100.00;99561.09;5074125;28;20441;-50
2021/07/06 07:52:59;;;;;;;0.40;0.20;;;;;;;19.46;100.00;99561.88;5074092;28;20421;-51
2021/07/06 07:55:26;;;;;;;0.40;0.20;;;;;;;19.46;100.00;99566.38;5073981;28;20486;-50
2021/07/06 07:57:52;;;;;;;0.40;0.20;;;;;;;19.44;100.00;99563.81;5073757;28;20432;-51
2021/07/06 08:00:19;;;;;;;0.40;0.20;;;;;;;19.85;100.00;99537.34;5073723;28;20460;-51
2021/07/06 08:02:46;;;;;;;0.40;0.20;;;;;;;19.44;100.00;99517.13;5073271;28;20877;-52
2021/07/06 08:05:15;;;;;;;0.40;0.20;;;;;;;19.36;100.00;99506.09;5073787;28;20529;-51
2021/07/06 08:07:42;;;;;;;1.47;0.93;;;;;;;19.12;100.00;99507.00;5060966;28;20428;-50
2021/07/06 08:10:09;;;;;;;0.40;0.20;;;;;;;19.24;100.00;99495.28;5073473;28;20868;-51
2021/07/06 08:12:35;;;;;;;0.40;0.27;;;;;;;19.24;100.00;99495.28;5073621;28;20457;-50
2021/07/06 08:15:04;;;;;;;0.40;0.20;;;;;;;19.17;100.00;99494.03;5065439;28;20426;-50
2021/07/06 08:17:31;;;;;;;6.53;2.20;;;;;;;19.32;100.00;99483.03;5073531;28;20453;-51
2021/07/06 08:19:59;;;;;;;0.40;0.20;;;;;;;19.40;100.00;99486.00;5073420;28;20524;-51
2021/07/06 08:22:27;;;;;;;1.07;1.07;;;;;;;19.38;100.00;99480.75;5073504;28;20448;-51
2021/07/06 08:24:54;;;;;;;0.40;0.20;;;;;;;19.42;100.00;99474.13;5071317;28;20442;-50
2021/07/06 08:27:21;;;;;;;0.40;0.27;;;;;;;19.51;100.00;99478.81;5062966;28;20920;-50
2021/07/06 08:29:47;;;;;;;0.40;0.20;;;;;;;19.52;100.00;99474.28;5073192;28;20416;-50
2021/07/06 08:32:14;;;;;;;0.40;0.20;;;;;;;19.58;100.00;99479.19;5070265;28;20799;-51
2021/07/06 08:34:41;;;;;;;0.40;0.20;;;;;;;19.60;100.00;99497.94;5072876;28;20452;-51
2021/07/06 08:37:09;;;;;;;0.40;0.20;;;;;;;19.50;100.00;99512.13;5073767;28;20439;-51
2021/07/06 08:39:35;;;;;;;0.40;0.20;;;;;;;19.58;100.00;99522.34;5072858;28;20456;-51
2021/07/06 08:42:05;;;;;;;0.40;0.20;;;;;;;19.60;100.00;99524.91;5073564;28;20549;-51
2021/07/06 08:44:32;;;;;;;0.40;0.20;;;;;;;19.50;100.00;99535.53;5072123;28;20450;-51
2021/07/06 08:47:00;;;;;;;0.40;0.20;;;;;;;19.56;100.00;99545.00;5073100;28;20998;-50
2021/07/06 08:49:27;;;;;;;0.50;0.30;;;;;;;19.56;100.00;99542.31;5072710;28;20421;-51
2021/07/06 08:51:54;;;;;;;0.40;0.20;;;;;;;19.51;100.00;99539.94;5072964;28;20474;-50
2021/07/06 08:54:21;;;;;;;0.40;0.20;;;;;;;19.36;100.00;99535.75;5072594;28;20454;-51
2021/07/06 08:56:49;;;;;;;0.40;0.20;;;;;;;19.53;100.00;99538.84;5072483;28;20476;-51
2021/07/06 08:59:28;;;;;;;0.40;0.20;;;;;;;19.45;100.00;99557.44;5072467;28;20872;-50
2021/07/06 09:01:55;;;;;;;0.40;0.20;;;;;;;19.37;100.00;99559.88;5072674;28;20477;-51
2021/07/06 09:04:23;;;;;;;0.40;0.20;;;;;;;19.44;100.00;99563.81;5072758;28;21077;-50
2021/07/06 09:06:57;;;;;;;0.40;0.20;;;;;;;19.45;100.00;99554.75;5057142;28;20508;-52
2021/07/06 09:09:28;;;;;;;0.40;0.20;;;;;;;19.46;100.00;99559.19;5060280;28;20968;-51
2021/07/06 09:11:56;;;;;;;0.40;0.20;;;;;;;19.51;100.00;99539.94;5072439;28;20440;-50
2021/07/06 09:14:28;;;;;;;0.40;0.20;;;;;;;19.61;100.00;99530.22;5069365;28;20881;-52
2021/07/06 09:17:12;;;;;;;0.40;0.20;;;;;;;19.62;100.00;99549.94;5069125;28;20417;-50
2021/07/06 09:19:47;;;;;;;0.40;0.20;;;;;;;19.49;100.00;99531.13;5071579;28;20482;-51
2021/07/06 09:22:13;;;;;;;0.40;0.20;;;;;;;19.52;100.00;99502.09;5072427;28;20523;-51
2021/07/06 09:24:42;;;;;;;0.40;0.20;;;;;;;19.44;100.00;99466.78;5072001;28;20442;-51
2021/07/06 09:27:24;;;;;;;0.53;0.53;;;;;;;19.54;100.00;99480.41;5059771;28;20942;-50
2021/07/06 09:30:27;;;;;;;0.40;0.20;;;;;;;19.65;100.00;99474.19;5072511;28;20481;-51
2021/07/06 09:32:55;;;;;;;0.40;0.20;;;;;;;19.44;100.00;99457.81;5068614;28;20519;-51
2021/07/06 09:35:25;;;;;;;0.40;0.20;;;;;;;19.13;100.00;99410.88;5072154;28;20428;-50
2021/07/06 09:37:53;;;;;;;0.40;0.20;;;;;;;19.19;100.00;99400.47;5073973;28;20767;-51
2021/07/06 09:40:42;;;;;;;0.40;0.20;;;;;;;19.22;100.00;99399.38;5071999;28;20456;-51
2021/07/06 09:43:28;;;;;;;0.40;0.30;;;;;;;19.46;100.00;99440.56;5071948;28;20432;-50
2021/07/06 09:46:09;;;;;;;0.40;0.20;;;;;;;19.66;100.00;99495.66;5058564;28;20466;-50
2021/07/06 09:48:44;;;;;;;0.40;0.20;;;;;;;19.81;100.00;99507.91;5071796;28;20824;-56
2021/07/06 09:51:15;;;;;;;0.40;0.20;;;;;;;19.79;100.00;99527.91;5071650;28;20457;-50
2021/07/06 09:53:48;;;;;;;0.40;0.20;;;;;;;20.01;100.00;99554.91;5072008;28;21007;-52
2021/07/06 09:56:28;;;;;;;0.40;0.20;;;;;;;20.10;100.00;99572.19;5059073;28;20462;-51
2021/07/06 09:58:56;;;;;;;0.40;0.20;;;;;;;20.19;100.00;99581.41;5071727;28;20971;-51
2021/07/06 10:01:25;;;;;;;0.40;0.30;;;;;;;20.18;100.00;99591.34;5072883;28;20476;-51
2021/07/06 10:03:53;;;;;;;0.40;0.20;;;;;;;20.32;100.00;99591.09;5071831;28;20472;-51
2021/07/06 10:06:24;;;;;;;0.40;0.20;;;;;;;20.50;100.00;99599.59;5072121;28;20507;-50
2021/07/06 10:08:52;;;;;;;0.40;0.20;;;;;;;20.59;100.00;99606.09;5071852;28;20417;-51
2021/07/06 10:11:21;;;;;;;0.40;0.20;;;;;;;20.58;100.00;99607.06;5071783;28;20810;-51
2021/07/06 10:13:47;;;;;;;0.40;0.20;;;;;;;20.79;100.00;99610.72;5071684;28;20457;-52
2021/07/06 10:16:15;;;;;;;0.40;0.20;;;;;;;20.78;100.00;99610.84;5064759;28;20534;-51
2021/07/06 10:18:43;;;;;;;0.40;0.20;;;;;;;20.84;100.00;99615.75;5071436;28;20950;-51
2021/07/06 10:21:10;;;;;;;0.40;0.20;;;;;;;21.00;100.00;99616.22;5071637;28;20463;-51
2021/07/06 10:23:38;;;;;;;0.40;0.20;;;;;;;21.02;100.00;99605.28;5071668;28;20447;-51
2021/07/06 10:26:07;;;;;;;0.40;0.20;;;;;;;20.95;100.00;99605.75;5059886;28;20458;-51
2021/07/06 10:28:34;;;;;;;0.40;0.20;;;;;;;20.87;100.00;99605.56;5070371;28;20420;-51
2021/07/06 10:31:16;;;;;;;0.40;0.20;;;;;;;20.79;100.00;99591.81;5070189;28;20949;-52
2021/07/06 10:33:48;;;;;;;0.40;0.30;;;;;;;20.75;100.00;99589.50;5062068;28;20947;-51
2021/07/06 10:36:33;;;;;;;0.40;0.20;;;;;;;20.92;100.00;99597.06;5075305;28;20446;-51
2021/07/06 10:39:00;;;;;;;0.40;0.20;;;;;;;21.07;100.00;99612.00;5073915;28;20904;-51
2021/07/06 10:41:36;;;;;;;0.40;0.20;;;;;;;20.93;100.00;99596.06;5076010;28;20521;-50
2021/07/06 10:44:05;;;;;;;0.40;0.20;;;;;;;21.10;100.00;99583.84;5075607;28;20445;-52
2021/07/06 10:46:37;;;;;;;0.40;0.20;;;;;;;21.26;100.00;99587.06;5075041;28;20507;-51
2021/07/06 10:49:09;;;;;;;0.40;0.20;;;;;;;21.14;100.00;99582.63;5075045;28;20468;-51
2021/07/06 10:54:15;;;;;;;0.40;0.20;;;;;;;20.95;100.00;99589.56;5075073;28;20482;-51
2021/07/06 10:56:47;;;;;;;0.40;0.20;;;;;;;20.92;100.00;99599.75;5075061;28;20451;-50
2021/07/06 10:59:35;;;;;;;0.40;0.20;;;;;;;20.78;100.00;99591.94;5075582;28;20416;-50
2021/07/06 11:02:21;;;;;;;0.40;0.20;;;;;;;20.99;100.00;99591.03;5074956;28;20429;-52
2021/07/06 11:04:51;;;;;;;0.40;0.20;;;;;;;21.26;100.00;99593.31;5075036;28;20515;-50
2021/07/06 11:07:29;;;;;;;0.40;0.20;;;;;;;21.53;100.00;99590.13;5074817;28;20429;-50
2021/07/06 11:09:56;;;;;;;0.50;0.30;;;;;;;21.72;100.00;99577.72;5073664;28;20435;-51
2021/07/06 11:12:29;;;;;;;0.40;0.20;;;;;;;21.72;100.00;99575.88;5075124;28;20474;-51
2021/07/06 11:15:03;;;;;;;0.40;0.20;;;;;;;21.74;100.00;99571.19;5067596;28;20817;-51
2021/07/06 11:17:39;;;;;;;0.40;0.20;;;;;;;21.80;100.00;99567.09;5064071;28;20441;-52
2021/07/06 11:20:13;;;;;;;37.87;1.37;;;;;;;21.87;100.00;99561.00;5074820;28;20481;-52
2021/07/06 11:22:48;;;;;;;0.40;0.20;;;;;;;22.09;100.00;99570.00;5074451;28;20450;-52
2021/07/06 11:25:16;;;;;;;0.40;0.20;;;;;;;21.92;100.00;99586.78;5069425;28;20455;-51
2021/07/06 11:27:53;;;;;;;0.40;0.20;;;;;;;21.94;100.00;99588.41;5067171;28;20429;-51
2021/07/06 11:30:25;;;;;;;0.40;0.20;;;;;;;22.06;100.00;99584.63;5074942;28;20445;-52
2021/07/06 11:33:15;;;;;;;0.40;0.20;;;;;;;21.80;100.00;99572.50;5071474;28;20433;-52
2021/07/06 11:35:44;;;;;;;0.50;0.37;;;;;;;21.99;100.00;99571.75;5074666;28;20446;-52
2021/07/06 11:38:20;;;;;;;0.40;0.20;;;;;;;21.66;100.00;99570.13;5074168;28;20421;-52